sensor_id;sensor_type;location;lat;lon;timestamp;noise_LAeq;noise_LA_min;noise_LA_max;noise_LA01;noise_LA95
41518;Laerm;27249;48.094;-1.690;2024-03-23T00:58:29;47.12;42.53;57.48;;
41518;Laerm;27249;48.094;-1.690;2024-03-23T01:00:54;47.62;43.04;58.93;;
41518;Laerm;27249;48.094;-1.690;2024-03-23T01:03:19;54.91;43.76;66.97;;
41518;Laerm;27249;48.094;-1.690;2024-03-23T01:05:45;45.55;43.09;58.96;;
41518;Laerm;27249;48.094;-1.690;2024-03-23T01:08:10;48.70;43.29;65.15;;
41518;Laerm;27249;48.094;-1.690;2024-03-23T01:10:35;45.43;42.59;51.78;;
41518;Laerm;27249;48.094;-1.690;2024-03-23T01:13:00;50.62;43.14;62.56;;
41518;Laerm;27249;48.094;-1.690;2024-03-23T01:15:25;52.34;43.29;62.50;;
41518;Laerm;27249;48.094;-1.690;2024-03-23T01:17:51;47.19;42.71;60.20;;
41518;Laerm;27249;48.094;-1.690;2024-03-23T01:20:16;52.65;43.14;65.15;;
41518;Laerm;27249;48.094;-1.690;2024-03-23T01:22:41;47.83;42.71;56.58;;
41518;Laerm;27249;48.094;-1.690;2024-03-23T01:25:07;51.47;43.90;60.40;;
41518;Laerm;27249;48.094;-1.690;2024-03-23T01:27:32;53.84;44.11;64.71;;
41518;Laerm;27249;48.094;-1.690;2024-03-23T01:29:57;47.79;42.35;61.65;;
41518;Laerm;27249;48.094;-1.690;2024-03-23T01:32:23;51.33;43.68;68.48;;
41518;Laerm;27249;48.094;-1.690;2024-03-23T01:34:48;50.93;42.22;63.39;;
41518;Laerm;27249;48.094;-1.690;2024-03-23T01:37:13;50.29;43.72;59.53;;
41518;Laerm;27249;48.094;-1.690;2024-03-23T01:39:38;51.01;43.86;60.71;;
41518;Laerm;27249;48.094;-1.690;2024-03-23T01:42:04;51.05;43.39;60.82;;
41518;Laerm;27249;48.094;-1.690;2024-03-23T01:44:29;48.53;42.98;59.44;;
41518;Laerm;27249;48.094;-1.690;2024-03-23T01:46:54;51.91;42.59;63.46;;
41518;Laerm;27249;48.094;-1.690;2024-03-23T01:49:20;50.38;43.90;61.94;;
41518;Laerm;27249;48.094;-1.690;2024-03-23T01:51:45;53.08;43.19;65.29;;
41518;Laerm;27249;48.094;-1.690;2024-03-23T01:54:10;48.83;43.05;58.03;;
41518;Laerm;27249;48.094;-1.690;2024-03-23T01:56:36;48.22;43.04;61.16;;
41518;Laerm;27249;48.094;-1.690;2024-03-23T01:59:04;47.66;42.82;61.07;;
41518;Laerm;27249;48.094;-1.690;2024-03-23T02:01:30;49.46;42.29;58.72;;
41518;Laerm;27249;48.094;-1.690;2024-03-23T02:03:55;44.94;41.46;51.40;;
41518;Laerm;27249;48.094;-1.690;2024-03-23T02:06:21;52.13;43.39;63.44;;
41518;Laerm;27249;48.094;-1.690;2024-03-23T02:08:47;47.73;43.44;57.39;;
41518;Laerm;27249;48.094;-1.690;2024-03-23T02:11:13;49.51;42.29;61.22;;
41518;Laerm;27249;48.094;-1.690;2024-03-23T02:13:38;45.05;42.59;52.34;;
41518;Laerm;27249;48.094;-1.690;2024-03-23T02:16:04;50.31;42.65;60.94;;
41518;Laerm;27249;48.094;-1.690;2024-03-23T02:18:29;50.34;42.65;65.72;;
41518;Laerm;27249;48.094;-1.690;2024-03-23T02:20:55;52.77;42.76;65.75;;
41518;Laerm;27249;48.094;-1.690;2024-03-23T02:23:20;51.22;42.93;59.88;;
41518;Laerm;27249;48.094;-1.690;2024-03-23T02:25:45;49.39;42.65;61.96;;
41518;Laerm;27249;48.094;-1.690;2024-03-23T02:28:10;49.86;42.85;63.00;;
41518;Laerm;27249;48.094;-1.690;2024-03-23T02:30:36;49.50;43.44;68.70;;
41518;Laerm;27249;48.094;-1.690;2024-03-23T02:33:01;46.01;42.22;57.81;;
41518;Laerm;27249;48.094;-1.690;2024-03-23T02:35:27;48.70;43.14;58.70;;
41518;Laerm;27249;48.094;-1.690;2024-03-23T02:37:52;49.22;43.34;61.10;;
41518;Laerm;27249;48.094;-1.690;2024-03-23T02:40:20;60.37;42.88;76.90;;
41518;Laerm;27249;48.094;-1.690;2024-03-23T02:42:45;53.27;44.23;66.09;;
41518;Laerm;27249;48.094;-1.690;2024-03-23T02:45:11;49.72;43.72;63.86;;
41518;Laerm;27249;48.094;-1.690;2024-03-23T02:47:36;48.65;43.58;59.87;;
41518;Laerm;27249;48.094;-1.690;2024-03-23T02:50:02;52.98;44.69;61.44;;
41518;Laerm;27249;48.094;-1.690;2024-03-23T02:52:27;52.12;44.15;63.47;;
41518;Laerm;27249;48.094;-1.690;2024-03-23T02:54:52;55.37;45.66;62.91;;
41518;Laerm;27249;48.094;-1.690;2024-03-23T02:57:18;52.56;47.55;57.52;;
41518;Laerm;27249;48.094;-1.690;2024-03-23T02:59:43;57.06;47.93;76.31;;
41518;Laerm;27249;48.094;-1.690;2024-03-23T03:02:08;49.28;42.16;60.24;;
41518;Laerm;27249;48.094;-1.690;2024-03-23T03:04:33;51.31;43.04;67.01;;
41518;Laerm;27249;48.094;-1.690;2024-03-23T03:06:59;48.24;43.19;58.78;;
41518;Laerm;27249;48.094;-1.690;2024-03-23T03:09:24;52.58;43.44;62.27;;
41518;Laerm;27249;48.094;-1.690;2024-03-23T03:11:49;55.39;42.71;70.38;;
41518;Laerm;27249;48.094;-1.690;2024-03-23T03:14:14;54.58;41.38;72.71;;
41518;Laerm;27249;48.094;-1.690;2024-03-23T03:16:40;45.87;41.68;60.16;;
41518;Laerm;27249;48.094;-1.690;2024-03-23T03:19:05;49.68;42.65;60.70;;
41518;Laerm;27249;48.094;-1.690;2024-03-23T03:21:31;48.89;42.09;59.92;;
41518;Laerm;27249;48.094;-1.690;2024-03-23T03:23:57;50.59;42.22;62.96;;
41518;Laerm;27249;48.094;-1.690;2024-03-23T03:26:22;52.55;42.82;70.80;;
41518;Laerm;27249;48.094;-1.690;2024-03-23T03:28:48;49.81;42.47;62.56;;
41518;Laerm;27249;48.094;-1.690;2024-03-23T03:31:17;50.65;42.03;62.23;;
41518;Laerm;27249;48.094;-1.690;2024-03-23T03:33:42;49.74;42.79;65.26;;
41518;Laerm;27249;48.094;-1.690;2024-03-23T03:36:08;51.24;42.65;64.38;;
41518;Laerm;27249;48.094;-1.690;2024-03-23T03:38:33;54.32;43.68;70.94;;
41518;Laerm;27249;48.094;-1.690;2024-03-23T03:41:00;52.52;42.35;70.73;;
41518;Laerm;27249;48.094;-1.690;2024-03-23T03:43:25;51.08;42.65;62.13;;
41518;Laerm;27249;48.094;-1.690;2024-03-23T03:45:51;51.67;42.82;67.76;;
41518;Laerm;27249;48.094;-1.690;2024-03-23T03:48:16;49.71;41.82;62.14;;
41518;Laerm;27249;48.094;-1.690;2024-03-23T03:50:42;48.22;41.68;60.05;;
41518;Laerm;27249;48.094;-1.690;2024-03-23T03:53:07;46.87;41.89;57.22;;
41518;Laerm;27249;48.094;-1.690;2024-03-23T03:55:32;44.90;41.96;51.08;;
41518;Laerm;27249;48.094;-1.690;2024-03-23T03:57:57;49.82;42.53;58.44;;
41518;Laerm;27249;48.094;-1.690;2024-03-23T04:00:22;52.23;42.93;63.40;;
41518;Laerm;27249;48.094;-1.690;2024-03-23T04:02:48;50.13;42.76;61.00;;
41518;Laerm;27249;48.094;-1.690;2024-03-23T04:05:13;51.38;42.47;61.76;;
41518;Laerm;27249;48.094;-1.690;2024-03-23T04:07:38;48.57;42.35;60.84;;
41518;Laerm;27249;48.094;-1.690;2024-03-23T04:10:03;48.65;42.22;60.92;;
41518;Laerm;27249;48.094;-1.690;2024-03-23T04:12:32;50.18;42.19;61.59;;
41518;Laerm;27249;48.094;-1.690;2024-03-23T04:14:57;52.46;43.44;67.16;;
41518;Laerm;27249;48.094;-1.690;2024-03-23T04:17:22;45.46;43.19;56.71;;
41518;Laerm;27249;48.094;-1.690;2024-03-23T04:19:50;50.33;43.94;62.83;;
41518;Laerm;27249;48.094;-1.690;2024-03-23T04:22:16;49.76;43.24;59.32;;
41518;Laerm;27249;48.094;-1.690;2024-03-23T04:24:41;50.19;42.98;60.65;;
41518;Laerm;27249;48.094;-1.690;2024-03-23T04:27:07;50.05;43.44;62.54;;
41518;Laerm;27249;48.094;-1.690;2024-03-23T04:29:32;49.19;42.71;67.26;;
41518;Laerm;27249;48.094;-1.690;2024-03-23T04:31:57;46.77;42.88;58.23;;
41518;Laerm;27249;48.094;-1.690;2024-03-23T04:34:23;55.89;43.58;67.78;;
41518;Laerm;27249;48.094;-1.690;2024-03-23T04:36:48;47.71;43.19;61.43;;
41518;Laerm;27249;48.094;-1.690;2024-03-23T04:39:13;48.61;44.03;61.44;;
41518;Laerm;27249;48.094;-1.690;2024-03-23T04:41:38;51.61;44.11;63.14;;
41518;Laerm;27249;48.094;-1.690;2024-03-23T04:44:04;51.68;44.07;62.79;;
41518;Laerm;27249;48.094;-1.690;2024-03-23T04:46:29;49.46;43.99;60.67;;
41518;Laerm;27249;48.094;-1.690;2024-03-23T04:48:54;54.51;44.94;67.05;;
41518;Laerm;27249;48.094;-1.690;2024-03-23T04:51:22;52.73;44.87;61.10;;
41518;Laerm;27249;48.094;-1.690;2024-03-23T04:53:47;51.47;43.77;63.41;;
41518;Laerm;27249;48.094;-1.690;2024-03-23T04:56:16;51.65;43.86;62.08;;
41518;Laerm;27249;48.094;-1.690;2024-03-23T04:58:42;50.33;43.99;61.99;;
41518;Laerm;27249;48.094;-1.690;2024-03-23T05:01:07;54.82;44.72;68.51;;
41518;Laerm;27249;48.094;-1.690;2024-03-23T05:03:32;55.15;44.19;64.53;;
41518;Laerm;27249;48.094;-1.690;2024-03-23T05:05:58;50.20;44.27;60.78;;
41518;Laerm;27249;48.094;-1.690;2024-03-23T05:08:23;46.72;43.63;62.80;;
41518;Laerm;27249;48.094;-1.690;2024-03-23T05:10:48;52.98;43.34;63.08;;
41518;Laerm;27249;48.094;-1.690;2024-03-23T05:13:14;55.07;43.44;64.83;;
41518;Laerm;27249;48.094;-1.690;2024-03-23T05:15:39;51.84;44.31;63.78;;
41518;Laerm;27249;48.094;-1.690;2024-03-23T05:18:04;52.57;43.24;63.92;;
41518;Laerm;27249;48.094;-1.690;2024-03-23T05:20:30;54.26;45.01;65.62;;
41518;Laerm;27249;48.094;-1.690;2024-03-23T05:22:55;51.44;44.27;59.74;;
41518;Laerm;27249;48.094;-1.690;2024-03-23T05:25:20;55.03;44.58;72.13;;
41518;Laerm;27249;48.094;-1.690;2024-03-23T05:27:46;50.39;45.07;60.77;;
41518;Laerm;27249;48.094;-1.690;2024-03-23T05:30:11;53.29;46.28;66.07;;
41518;Laerm;27249;48.094;-1.690;2024-03-23T05:32:36;52.74;44.87;65.67;;
41518;Laerm;27249;48.094;-1.690;2024-03-23T05:35:03;54.39;45.75;67.75;;
41518;Laerm;27249;48.094;-1.690;2024-03-23T05:37:29;53.83;46.45;62.90;;
41518;Laerm;27249;48.094;-1.690;2024-03-23T05:39:56;56.90;46.54;74.24;;
41518;Laerm;27249;48.094;-1.690;2024-03-23T05:42:21;54.40;46.07;71.33;;
41518;Laerm;27249;48.094;-1.690;2024-03-23T05:44:46;54.55;45.80;66.61;;
41518;Laerm;27249;48.094;-1.690;2024-03-23T05:47:12;52.18;45.63;68.38;;
41518;Laerm;27249;48.094;-1.690;2024-03-23T05:49:41;53.78;45.69;70.79;;
41518;Laerm;27249;48.094;-1.690;2024-03-23T05:52:07;53.94;45.66;67.11;;
41518;Laerm;27249;48.094;-1.690;2024-03-23T05:54:32;53.52;45.20;64.74;;
41518;Laerm;27249;48.094;-1.690;2024-03-23T05:56:58;53.52;45.42;63.88;;
41518;Laerm;27249;48.094;-1.690;2024-03-23T05:59:24;52.80;45.51;64.10;;
41518;Laerm;27249;48.094;-1.690;2024-03-23T06:01:49;53.57;46.13;69.83;;
41518;Laerm;27249;48.094;-1.690;2024-03-23T06:04:14;54.69;45.80;65.02;;
41518;Laerm;27249;48.094;-1.690;2024-03-23T06:06:41;56.22;46.20;71.20;;
41518;Laerm;27249;48.094;-1.690;2024-03-23T06:09:06;56.47;46.84;67.62;;
41518;Laerm;27249;48.094;-1.690;2024-03-23T06:11:31;53.89;45.04;71.71;;
41518;Laerm;27249;48.094;-1.690;2024-03-23T06:13:57;55.27;46.40;63.96;;
41518;Laerm;27249;48.094;-1.690;2024-03-23T06:16:22;52.98;46.15;65.14;;
41518;Laerm;27249;48.094;-1.690;2024-03-23T06:18:50;55.03;48.21;65.11;;
41518;Laerm;27249;48.094;-1.690;2024-03-23T06:21:16;54.98;47.28;72.89;;
41518;Laerm;27249;48.094;-1.690;2024-03-23T06:23:41;59.65;49.84;73.86;;
41518;Laerm;27249;48.094;-1.690;2024-03-23T06:26:06;59.21;48.67;67.20;;
41518;Laerm;27249;48.094;-1.690;2024-03-23T06:28:32;57.55;49.79;73.33;;
41518;Laerm;27249;48.094;-1.690;2024-03-23T06:30:57;54.95;47.00;69.37;;
41518;Laerm;27249;48.094;-1.690;2024-03-23T06:33:23;55.22;47.14;68.47;;
41518;Laerm;27249;48.094;-1.690;2024-03-23T06:35:52;56.07;45.89;63.86;;
41518;Laerm;27249;48.094;-1.690;2024-03-23T06:38:17;55.70;46.93;64.74;;
41518;Laerm;27249;48.094;-1.690;2024-03-23T06:40:42;55.40;46.62;62.64;;
41518;Laerm;27249;48.094;-1.690;2024-03-23T06:43:08;54.17;47.06;65.70;;
41518;Laerm;27249;48.094;-1.690;2024-03-23T06:45:33;52.34;46.62;63.12;;
41518;Laerm;27249;48.094;-1.690;2024-03-23T06:47:59;56.57;47.55;70.56;;
41518;Laerm;27249;48.094;-1.690;2024-03-23T06:50:24;55.39;46.48;65.33;;
41518;Laerm;27249;48.094;-1.690;2024-03-23T06:52:50;54.47;46.84;62.08;;
41518;Laerm;27249;48.094;-1.690;2024-03-23T06:55:15;55.43;47.68;61.41;;
41518;Laerm;27249;48.094;-1.690;2024-03-23T06:57:40;54.98;47.70;61.54;;
41518;Laerm;27249;48.094;-1.690;2024-03-23T07:00:06;54.71;47.08;63.37;;
41518;Laerm;27249;48.094;-1.690;2024-03-23T07:02:35;54.98;46.25;64.23;;
41518;Laerm;27249;48.094;-1.690;2024-03-23T07:05:01;54.82;47.32;61.32;;
41518;Laerm;27249;48.094;-1.690;2024-03-23T07:07:26;55.35;47.83;62.64;;
41518;Laerm;27249;48.094;-1.690;2024-03-23T07:09:52;53.56;46.28;62.78;;
41518;Laerm;27249;48.094;-1.690;2024-03-23T07:12:18;54.25;47.08;62.47;;
41518;Laerm;27249;48.094;-1.690;2024-03-23T07:14:43;53.49;46.57;61.41;;
41518;Laerm;27249;48.094;-1.690;2024-03-23T07:17:09;56.65;48.32;64.17;;
41518;Laerm;27249;48.094;-1.690;2024-03-23T07:19:34;55.72;50.17;62.93;;
41518;Laerm;27249;48.094;-1.690;2024-03-23T07:21:59;56.17;48.83;62.24;;
41518;Laerm;27249;48.094;-1.690;2024-03-23T07:24:24;55.35;47.77;61.19;;
41518;Laerm;27249;48.094;-1.690;2024-03-23T07:26:50;56.24;47.70;66.89;;
41518;Laerm;27249;48.094;-1.690;2024-03-23T07:29:16;55.96;49.35;64.00;;
41518;Laerm;27249;48.094;-1.690;2024-03-23T07:31:41;55.81;47.67;64.88;;
41518;Laerm;27249;48.094;-1.690;2024-03-23T07:34:07;55.42;47.84;64.10;;
41518;Laerm;27249;48.094;-1.690;2024-03-23T07:36:32;56.34;49.90;62.46;;
41518;Laerm;27249;48.094;-1.690;2024-03-23T07:38:57;55.80;49.28;60.91;;
41518;Laerm;27249;48.094;-1.690;2024-03-23T07:41:22;55.26;47.95;63.06;;
41518;Laerm;27249;48.094;-1.690;2024-03-23T07:43:48;59.85;48.16;73.42;;
41518;Laerm;27249;48.094;-1.690;2024-03-23T07:46:14;56.50;47.11;67.49;;
41518;Laerm;27249;48.094;-1.690;2024-03-23T07:48:40;55.93;49.15;64.08;;
41518;Laerm;27249;48.094;-1.690;2024-03-23T07:51:11;56.89;50.24;66.24;;
41518;Laerm;27249;48.094;-1.690;2024-03-23T07:53:36;57.32;50.79;64.35;;
41518;Laerm;27249;48.094;-1.690;2024-03-23T07:56:05;57.06;49.06;67.31;;
41518;Laerm;27249;48.094;-1.690;2024-03-23T07:58:30;56.90;50.16;63.42;;
41518;Laerm;27249;48.094;-1.690;2024-03-23T08:01:02;57.29;48.70;70.52;;
41518;Laerm;27249;48.094;-1.690;2024-03-23T08:03:28;56.02;49.65;64.01;;
41518;Laerm;27249;48.094;-1.690;2024-03-23T08:05:53;57.61;50.26;68.40;;
41518;Laerm;27249;48.094;-1.690;2024-03-23T08:08:18;56.19;49.92;67.63;;
41518;Laerm;27249;48.094;-1.690;2024-03-23T08:10:50;55.14;47.87;63.23;;
41518;Laerm;27249;48.094;-1.690;2024-03-23T08:13:15;57.57;49.46;72.04;;
41518;Laerm;27249;48.094;-1.690;2024-03-23T08:15:41;56.55;49.41;65.06;;
41518;Laerm;27249;48.094;-1.690;2024-03-23T08:18:06;56.93;49.33;67.62;;
41518;Laerm;27249;48.094;-1.690;2024-03-23T08:20:31;57.19;49.90;67.16;;
41518;Laerm;27249;48.094;-1.690;2024-03-23T08:22:57;57.17;49.87;63.30;;
41518;Laerm;27249;48.094;-1.690;2024-03-23T08:25:22;56.67;49.10;67.02;;
41518;Laerm;27249;48.094;-1.690;2024-03-23T08:27:47;57.25;48.99;65.45;;
41518;Laerm;27249;48.094;-1.690;2024-03-23T08:30:12;57.16;49.47;64.95;;
41518;Laerm;27249;48.094;-1.690;2024-03-23T08:32:38;56.89;51.44;62.94;;
41518;Laerm;27249;48.094;-1.690;2024-03-23T08:35:03;55.54;47.68;66.04;;
41518;Laerm;27249;48.094;-1.690;2024-03-23T08:37:29;57.74;50.80;65.73;;
41518;Laerm;27249;48.094;-1.690;2024-03-23T08:39:54;55.50;49.83;61.66;;
41518;Laerm;27249;48.094;-1.690;2024-03-23T08:42:20;56.10;49.62;64.33;;
41518;Laerm;27249;48.094;-1.690;2024-03-23T08:44:47;55.89;49.91;62.64;;
41518;Laerm;27249;48.094;-1.690;2024-03-23T08:47:14;56.30;50.18;62.32;;
41518;Laerm;27249;48.094;-1.690;2024-03-23T08:49:39;56.87;51.41;62.76;;
41518;Laerm;27249;48.094;-1.690;2024-03-23T08:52:05;56.08;49.39;61.66;;
41518;Laerm;27249;48.094;-1.690;2024-03-23T08:54:30;56.20;50.27;67.98;;
41518;Laerm;27249;48.094;-1.690;2024-03-23T08:56:56;57.38;50.67;65.26;;
41518;Laerm;27249;48.094;-1.690;2024-03-23T08:59:21;58.01;50.91;76.23;;
41518;Laerm;27249;48.094;-1.690;2024-03-23T09:01:48;59.16;50.92;72.50;;
41518;Laerm;27249;48.094;-1.690;2024-03-23T09:04:13;56.13;50.08;64.88;;
41518;Laerm;27249;48.094;-1.690;2024-03-23T09:06:39;57.90;49.98;71.12;;
41518;Laerm;27249;48.094;-1.690;2024-03-23T09:09:04;56.68;49.20;69.44;;
41518;Laerm;27249;48.094;-1.690;2024-03-23T09:11:29;57.00;50.19;64.20;;
41518;Laerm;27249;48.094;-1.690;2024-03-23T09:13:54;56.60;51.36;67.21;;
41518;Laerm;27249;48.094;-1.690;2024-03-23T09:16:20;57.72;49.24;77.50;;
41518;Laerm;27249;48.094;-1.690;2024-03-23T09:18:45;59.10;50.98;78.36;;
41518;Laerm;27249;48.094;-1.690;2024-03-23T09:21:11;57.37;50.30;70.49;;
41518;Laerm;27249;48.094;-1.690;2024-03-23T09:23:36;56.66;49.25;67.26;;
41518;Laerm;27249;48.094;-1.690;2024-03-23T09:26:05;56.25;50.51;64.09;;
41518;Laerm;27249;48.094;-1.690;2024-03-23T09:28:32;56.77;49.65;69.27;;
41518;Laerm;27249;48.094;-1.690;2024-03-23T09:31:07;56.14;50.09;68.03;;
41518;Laerm;27249;48.094;-1.690;2024-03-23T09:33:36;57.58;48.00;73.86;;
41518;Laerm;27249;48.094;-1.690;2024-03-23T09:36:04;57.63;47.76;79.19;;
41518;Laerm;27249;48.094;-1.690;2024-03-23T09:38:30;57.28;52.13;72.70;;
41518;Laerm;27249;48.094;-1.690;2024-03-23T09:40:56;57.17;50.90;66.88;;
41518;Laerm;27249;48.094;-1.690;2024-03-23T09:43:21;56.49;50.61;63.92;;
41518;Laerm;27249;48.094;-1.690;2024-03-23T09:45:46;57.77;49.82;74.94;;
41518;Laerm;27249;48.094;-1.690;2024-03-23T09:48:12;55.52;49.10;63.55;;
41518;Laerm;27249;48.094;-1.690;2024-03-23T09:50:41;57.39;51.91;68.67;;
41518;Laerm;27249;48.094;-1.690;2024-03-23T09:53:07;56.74;47.77;65.60;;
41518;Laerm;27249;48.094;-1.690;2024-03-23T09:55:33;58.77;50.09;76.87;;
41518;Laerm;27249;48.094;-1.690;2024-03-23T09:57:59;57.23;49.62;69.11;;
41518;Laerm;27249;48.094;-1.690;2024-03-23T10:00:24;57.22;48.99;65.57;;
41518;Laerm;27249;48.094;-1.690;2024-03-23T10:02:50;58.17;50.19;75.06;;
41518;Laerm;27249;48.094;-1.690;2024-03-23T10:05:22;56.59;47.91;70.67;;
41518;Laerm;27249;48.094;-1.690;2024-03-23T10:07:48;57.34;48.70;74.53;;
41518;Laerm;27249;48.094;-1.690;2024-03-23T10:10:14;56.96;49.23;70.61;;
41518;Laerm;27249;48.094;-1.690;2024-03-23T10:12:43;56.83;49.72;68.93;;
41518;Laerm;27249;48.094;-1.690;2024-03-23T10:15:15;56.05;50.52;65.89;;
41518;Laerm;27249;48.094;-1.690;2024-03-23T10:17:42;56.96;50.55;74.94;;
41518;Laerm;27249;48.094;-1.690;2024-03-23T10:20:09;57.14;51.63;66.05;;
41518;Laerm;27249;48.094;-1.690;2024-03-23T10:22:36;58.58;51.81;71.01;;
41518;Laerm;27249;48.094;-1.690;2024-03-23T10:25:09;57.83;50.73;73.15;;
41518;Laerm;27249;48.094;-1.690;2024-03-23T10:27:34;57.54;50.34;79.17;;
41518;Laerm;27249;48.094;-1.690;2024-03-23T10:30:13;56.37;49.15;65.94;;
41518;Laerm;27249;48.094;-1.690;2024-03-23T10:32:39;57.30;51.48;75.11;;
41518;Laerm;27249;48.094;-1.690;2024-03-23T10:35:17;57.73;51.86;74.96;;
41518;Laerm;27249;48.094;-1.690;2024-03-23T10:37:49;57.57;50.15;72.48;;
41518;Laerm;27249;48.094;-1.690;2024-03-23T10:40:16;58.40;48.32;78.18;;
41518;Laerm;27249;48.094;-1.690;2024-03-23T10:42:41;56.23;48.76;67.58;;
41518;Laerm;27249;48.094;-1.690;2024-03-23T10:45:07;57.68;51.43;74.24;;
41518;Laerm;27249;48.094;-1.690;2024-03-23T10:47:34;56.57;50.90;67.43;;
41518;Laerm;27249;48.094;-1.690;2024-03-23T10:49:59;56.62;48.70;65.99;;
41518;Laerm;27249;48.094;-1.690;2024-03-23T10:52:25;56.62;50.75;66.33;;
41518;Laerm;27249;48.094;-1.690;2024-03-23T10:54:50;57.94;51.08;68.93;;
41518;Laerm;27249;48.094;-1.690;2024-03-23T10:57:17;61.23;51.15;84.89;;
41518;Laerm;27249;48.094;-1.690;2024-03-23T10:59:45;58.30;49.59;71.60;;
41518;Laerm;27249;48.094;-1.690;2024-03-23T11:02:20;56.59;48.29;66.42;;
41518;Laerm;27249;48.094;-1.690;2024-03-23T11:04:45;57.58;50.11;72.54;;
41518;Laerm;27249;48.094;-1.690;2024-03-23T11:07:32;57.17;51.06;70.65;;
41518;Laerm;27249;48.094;-1.690;2024-03-23T11:09:57;55.47;50.22;66.49;;
41518;Laerm;27249;48.094;-1.690;2024-03-23T11:15:12;59.20;50.43;77.00;;
41518;Laerm;27249;48.094;-1.690;2024-03-23T11:17:38;57.31;50.10;75.16;;
41518;Laerm;27249;48.094;-1.690;2024-03-23T11:20:04;61.53;51.72;81.70;;
41518;Laerm;27249;48.094;-1.690;2024-03-23T11:22:45;62.62;50.68;82.69;;
41518;Laerm;27249;48.094;-1.690;2024-03-23T11:25:21;63.88;51.11;92.18;;
41518;Laerm;27249;48.094;-1.690;2024-03-23T11:27:50;57.55;50.35;72.57;;
41518;Laerm;27249;48.094;-1.690;2024-03-23T11:30:20;58.11;52.07;68.29;;
41518;Laerm;27249;48.094;-1.690;2024-03-23T11:32:47;58.22;51.31;70.81;;
41518;Laerm;27249;48.094;-1.690;2024-03-23T11:35:31;58.33;50.32;74.99;;
41518;Laerm;27249;48.094;-1.690;2024-03-23T11:38:16;62.36;50.42;82.63;;
41518;Laerm;27249;48.094;-1.690;2024-03-23T11:40:45;61.97;52.34;85.11;;
41518;Laerm;27249;48.094;-1.690;2024-03-23T11:43:14;57.25;50.77;66.69;;
41518;Laerm;27249;48.094;-1.690;2024-03-23T11:45:41;62.98;51.84;84.35;;
41518;Laerm;27249;48.094;-1.690;2024-03-23T11:48:08;57.38;49.96;73.14;;
41518;Laerm;27249;48.094;-1.690;2024-03-23T11:50:34;57.32;49.82;70.79;;
41518;Laerm;27249;48.094;-1.690;2024-03-23T11:53:06;57.21;47.88;75.40;;
41518;Laerm;27249;48.094;-1.690;2024-03-23T11:55:38;57.17;50.74;69.24;;
41518;Laerm;27249;48.094;-1.690;2024-03-23T11:58:05;58.75;50.51;73.75;;
41518;Laerm;27249;48.094;-1.690;2024-03-23T12:00:30;57.78;50.08;73.94;;
41518;Laerm;27249;48.094;-1.690;2024-03-23T12:03:00;58.42;49.88;72.52;;
41518;Laerm;27249;48.094;-1.690;2024-03-23T12:05:26;58.77;48.48;78.14;;
41518;Laerm;27249;48.094;-1.690;2024-03-23T12:07:51;57.96;48.51;75.86;;
41518;Laerm;27249;48.094;-1.690;2024-03-23T12:10:18;56.61;48.12;77.63;;
41518;Laerm;27249;48.094;-1.690;2024-03-23T12:12:43;57.73;51.61;71.26;;
41518;Laerm;27249;48.094;-1.690;2024-03-23T12:15:09;59.86;50.49;78.92;;
41518;Laerm;27249;48.094;-1.690;2024-03-23T12:17:37;64.29;52.11;82.78;;
41518;Laerm;27249;48.094;-1.690;2024-03-23T12:20:03;61.95;51.76;82.88;;
41518;Laerm;27249;48.094;-1.690;2024-03-23T12:22:28;57.28;47.90;81.23;;
41518;Laerm;27249;48.094;-1.690;2024-03-23T12:24:54;59.10;49.00;79.57;;
41518;Laerm;27249;48.094;-1.690;2024-03-23T12:27:20;59.82;49.69;79.09;;
41518;Laerm;27249;48.094;-1.690;2024-03-23T12:29:45;57.98;49.34;76.14;;
41518;Laerm;27249;48.094;-1.690;2024-03-23T12:32:11;58.27;50.22;76.32;;
41518;Laerm;27249;48.094;-1.690;2024-03-23T12:34:37;59.80;49.79;84.01;;
41518;Laerm;27249;48.094;-1.690;2024-03-23T12:37:02;61.82;50.21;83.00;;
41518;Laerm;27249;48.094;-1.690;2024-03-23T12:39:27;59.54;52.35;78.94;;
41518;Laerm;27249;48.094;-1.690;2024-03-23T12:41:53;57.24;49.81;72.65;;
41518;Laerm;27249;48.094;-1.690;2024-03-23T12:44:18;57.83;50.26;74.42;;
41518;Laerm;27249;48.094;-1.690;2024-03-23T12:46:44;57.27;48.34;74.95;;
41518;Laerm;27249;48.094;-1.690;2024-03-23T12:49:09;58.27;52.29;71.99;;
41518;Laerm;27249;48.094;-1.690;2024-03-23T12:51:34;57.39;48.51;70.90;;
41518;Laerm;27249;48.094;-1.690;2024-03-23T12:54:00;56.93;50.73;67.63;;
41518;Laerm;27249;48.094;-1.690;2024-03-23T12:56:25;57.31;50.46;71.56;;
41518;Laerm;27249;48.094;-1.690;2024-03-23T12:58:51;59.35;49.02;77.27;;
41518;Laerm;27249;48.094;-1.690;2024-03-23T13:01:19;55.78;47.18;68.90;;
41518;Laerm;27249;48.094;-1.690;2024-03-23T13:03:46;58.22;48.70;78.55;;
41518;Laerm;27249;48.094;-1.690;2024-03-23T13:06:11;57.50;48.92;72.28;;
41518;Laerm;27249;48.094;-1.690;2024-03-23T13:08:36;56.96;48.90;63.13;;
41518;Laerm;27249;48.094;-1.690;2024-03-23T13:11:02;58.27;50.38;76.35;;
41518;Laerm;27249;48.094;-1.690;2024-03-23T13:13:28;59.06;49.57;74.32;;
41518;Laerm;27249;48.094;-1.690;2024-03-23T13:15:53;56.43;49.16;63.98;;
41518;Laerm;27249;48.094;-1.690;2024-03-23T13:18:18;56.54;48.04;66.35;;
41518;Laerm;27249;48.094;-1.690;2024-03-23T13:20:43;56.70;50.49;68.88;;
41518;Laerm;27249;48.094;-1.690;2024-03-23T13:23:09;59.10;49.55;78.55;;
41518;Laerm;27249;48.094;-1.690;2024-03-23T13:25:34;60.38;49.73;78.71;;
41518;Laerm;27249;48.094;-1.690;2024-03-23T13:27:59;56.70;49.90;74.38;;
41518;Laerm;27249;48.094;-1.690;2024-03-23T13:30:26;57.38;50.13;74.31;;
41518;Laerm;27249;48.094;-1.690;2024-03-23T13:32:51;57.34;50.83;72.66;;
41518;Laerm;27249;48.094;-1.690;2024-03-23T13:35:16;56.30;47.10;68.06;;
41518;Laerm;27249;48.094;-1.690;2024-03-23T13:37:41;58.12;50.04;76.79;;
41518;Laerm;27249;48.094;-1.690;2024-03-23T13:40:07;59.64;49.02;85.40;;
41518;Laerm;27249;48.094;-1.690;2024-03-23T13:42:34;58.14;48.68;77.02;;
41518;Laerm;27249;48.094;-1.690;2024-03-23T13:44:59;65.30;51.89;85.11;;
41518;Laerm;27249;48.094;-1.690;2024-03-23T13:47:24;60.35;52.09;76.06;;
41518;Laerm;27249;48.094;-1.690;2024-03-23T13:49:49;59.41;51.96;67.87;;
41518;Laerm;27249;48.094;-1.690;2024-03-23T13:52:15;60.05;53.43;66.19;;
41518;Laerm;27249;48.094;-1.690;2024-03-23T13:54:40;58.44;48.10;66.81;;
41518;Laerm;27249;48.094;-1.690;2024-03-23T13:57:11;57.75;50.07;80.25;;
41518;Laerm;27249;48.094;-1.690;2024-03-23T13:59:36;57.97;52.77;65.12;;
41518;Laerm;27249;48.094;-1.690;2024-03-23T14:02:02;58.00;50.19;71.57;;
41518;Laerm;27249;48.094;-1.690;2024-03-23T14:04:27;57.61;51.18;63.33;;
41518;Laerm;27249;48.094;-1.690;2024-03-23T14:06:52;57.60;51.03;63.24;;
41518;Laerm;27249;48.094;-1.690;2024-03-23T14:09:17;57.91;51.05;63.96;;
41518;Laerm;27249;48.094;-1.690;2024-03-23T14:11:48;58.72;51.79;74.39;;
41518;Laerm;27249;48.094;-1.690;2024-03-23T14:14:13;57.44;51.31;71.90;;
41518;Laerm;27249;48.094;-1.690;2024-03-23T14:16:40;57.22;48.95;65.51;;
41518;Laerm;27249;48.094;-1.690;2024-03-23T14:19:05;57.85;51.02;69.92;;
41518;Laerm;27249;48.094;-1.690;2024-03-23T14:21:31;56.82;50.37;67.18;;
41518;Laerm;27249;48.094;-1.690;2024-03-23T14:23:56;56.96;47.24;66.47;;
41518;Laerm;27249;48.094;-1.690;2024-03-23T14:29:06;58.41;49.00;76.13;;